Pagrindinis puslapis
METAR-TAF:

METAR-TAF

Oro uostai :

Bušehras, Iranas

platuma: 28-59N, ilguma: 050-50E, Aukštis: 19 m

Dabartinis oras

Ataskaita buvo paskelbta 37 minutes, ne 11:00 UTC
Vėjas 12 kt iš Šiaurės/Šiaurės Vakarų
Temperatūra 20°C
Drėgmė 56%
Slėgis 1016 hPa
Matomumas: 5000 m
migla

METAR: OIBB 281100Z 34012KT 5000 HZ NSC 20/11 Q1015 A2999

Laikas: 15:07 (11:37 UTC)


TAF: trūkstamas

Orai ataskaitas ir orų prognozės (METAR, TAF).

turimą stotys yra geltonos ir raudonos taškus žemėlapyje.

Perkelti pele per norėdami pamatyti stoties vardą.

Tada spustelėkite, norėdami matyti oro stebėjimo ir prognozės.

Norėdami pakeisti žemėlapį: spustelėkite ant žalios mygtukų su juodo kryžiaus žemyn,; žalią mygtuką su brūkšneliu, jei norite nutolinti; arba žalių rodyklių gretimoms žemėlapius.


METAR-TAF: